sensor_id;sensor_type;location;lat;lon;timestamp;P1;durP1;ratioP1;P2;durP2;ratioP2
29500;SDS011;16450;50.288;10.966;2023-05-29T00:00:12;6.20;;;3.63;;
29500;SDS011;16450;50.288;10.966;2023-05-29T00:03:14;6.67;;;3.57;;
29500;SDS011;16450;50.288;10.966;2023-05-29T00:06:16;7.30;;;3.33;;
29500;SDS011;16450;50.288;10.966;2023-05-29T00:09:19;6.33;;;3.57;;
29500;SDS011;16450;50.288;10.966;2023-05-29T00:12:21;6.30;;;3.37;;
29500;SDS011;16450;50.288;10.966;2023-05-29T00:15:23;6.63;;;3.80;;
29500;SDS011;16450;50.288;10.966;2023-05-29T00:18:25;6.23;;;3.73;;
29500;SDS011;16450;50.288;10.966;2023-05-29T00:21:28;7.03;;;3.57;;
29500;SDS011;16450;50.288;10.966;2023-05-29T00:24:30;5.63;;;3.60;;
29500;SDS011;16450;50.288;10.966;2023-05-29T00:27:31;7.37;;;3.63;;
29500;SDS011;16450;50.288;10.966;2023-05-29T00:30:36;6.50;;;3.63;;
29500;SDS011;16450;50.288;10.966;2023-05-29T00:33:38;5.73;;;3.27;;
29500;SDS011;16450;50.288;10.966;2023-05-29T00:36:39;6.30;;;3.93;;
29500;SDS011;16450;50.288;10.966;2023-05-29T00:39:41;5.37;;;3.63;;
29500;SDS011;16450;50.288;10.966;2023-05-29T00:42:43;7.13;;;3.63;;
29500;SDS011;16450;50.288;10.966;2023-05-29T00:45:45;9.13;;;4.10;;
29500;SDS011;16450;50.288;10.966;2023-05-29T00:48:47;6.53;;;3.80;;
29500;SDS011;16450;50.288;10.966;2023-05-29T00:51:51;5.63;;;3.50;;
29500;SDS011;16450;50.288;10.966;2023-05-29T00:54:54;7.97;;;4.20;;
29500;SDS011;16450;50.288;10.966;2023-05-29T00:57:56;7.57;;;3.63;;
29500;SDS011;16450;50.288;10.966;2023-05-29T01:00:58;7.80;;;3.80;;
29500;SDS011;16450;50.288;10.966;2023-05-29T01:04:00;6.30;;;4.07;;
29500;SDS011;16450;50.288;10.966;2023-05-29T01:07:04;8.77;;;3.97;;
29500;SDS011;16450;50.288;10.966;2023-05-29T01:10:06;6.67;;;3.77;;
29500;SDS011;16450;50.288;10.966;2023-05-29T01:13:11;9.20;;;4.03;;
29500;SDS011;16450;50.288;10.966;2023-05-29T01:16:26;6.17;;;3.50;;
29500;SDS011;16450;50.288;10.966;2023-05-29T01:26:39;6.70;;;4.23;;
29500;SDS011;16450;50.288;10.966;2023-05-29T01:29:58;6.60;;;3.77;;
29500;SDS011;16450;50.288;10.966;2023-05-29T01:33:02;8.07;;;4.40;;
29500;SDS011;16450;50.288;10.966;2023-05-29T01:36:05;6.47;;;3.63;;
29500;SDS011;16450;50.288;10.966;2023-05-29T01:39:07;5.67;;;3.80;;
29500;SDS011;16450;50.288;10.966;2023-05-29T01:42:10;8.53;;;4.00;;
29500;SDS011;16450;50.288;10.966;2023-05-29T01:45:13;7.07;;;4.37;;
29500;SDS011;16450;50.288;10.966;2023-05-29T01:48:15;7.07;;;3.80;;
29500;SDS011;16450;50.288;10.966;2023-05-29T01:51:18;8.60;;;3.93;;
29500;SDS011;16450;50.288;10.966;2023-05-29T01:54:20;6.90;;;3.57;;
29500;SDS011;16450;50.288;10.966;2023-05-29T01:57:22;10.67;;;3.80;;
29500;SDS011;16450;50.288;10.966;2023-05-29T02:00:25;6.93;;;4.07;;
29500;SDS011;16450;50.288;10.966;2023-05-29T02:03:27;4.90;;;3.47;;
29500;SDS011;16450;50.288;10.966;2023-05-29T02:06:31;7.53;;;3.63;;
29500;SDS011;16450;50.288;10.966;2023-05-29T02:09:34;7.17;;;3.67;;
29500;SDS011;16450;50.288;10.966;2023-05-29T02:12:37;6.37;;;3.50;;
29500;SDS011;16450;50.288;10.966;2023-05-29T02:15:39;6.73;;;3.87;;
29500;SDS011;16450;50.288;10.966;2023-05-29T02:18:41;8.17;;;3.80;;
29500;SDS011;16450;50.288;10.966;2023-05-29T02:21:46;6.97;;;4.07;;
29500;SDS011;16450;50.288;10.966;2023-05-29T02:24:49;7.90;;;3.70;;
29500;SDS011;16450;50.288;10.966;2023-05-29T02:27:51;7.07;;;3.63;;
29500;SDS011;16450;50.288;10.966;2023-05-29T02:30:53;5.97;;;3.70;;
29500;SDS011;16450;50.288;10.966;2023-05-29T02:33:55;6.83;;;3.93;;
29500;SDS011;16450;50.288;10.966;2023-05-29T02:36:57;10.30;;;3.70;;
29500;SDS011;16450;50.288;10.966;2023-05-29T02:39:59;6.13;;;3.50;;
29500;SDS011;16450;50.288;10.966;2023-05-29T02:43:01;7.40;;;4.13;;
29500;SDS011;16450;50.288;10.966;2023-05-29T02:46:03;6.73;;;3.60;;
29500;SDS011;16450;50.288;10.966;2023-05-29T02:49:05;9.03;;;4.00;;
29500;SDS011;16450;50.288;10.966;2023-05-29T02:52:07;9.53;;;3.73;;
29500;SDS011;16450;50.288;10.966;2023-05-29T02:55:08;7.60;;;3.70;;
29500;SDS011;16450;50.288;10.966;2023-05-29T02:58:10;8.13;;;4.30;;
29500;SDS011;16450;50.288;10.966;2023-05-29T03:01:12;9.43;;;4.07;;
29500;SDS011;16450;50.288;10.966;2023-05-29T03:04:14;7.90;;;4.33;;
29500;SDS011;16450;50.288;10.966;2023-05-29T03:07:16;6.83;;;3.90;;
29500;SDS011;16450;50.288;10.966;2023-05-29T03:10:18;6.80;;;4.10;;
29500;SDS011;16450;50.288;10.966;2023-05-29T03:13:20;6.60;;;4.33;;
29500;SDS011;16450;50.288;10.966;2023-05-29T03:16:22;7.23;;;4.13;;
29500;SDS011;16450;50.288;10.966;2023-05-29T03:19:24;7.10;;;3.87;;
29500;SDS011;16450;50.288;10.966;2023-05-29T03:22:26;9.90;;;4.00;;
29500;SDS011;16450;50.288;10.966;2023-05-29T03:25:28;8.73;;;4.60;;
29500;SDS011;16450;50.288;10.966;2023-05-29T03:28:30;6.77;;;3.90;;
29500;SDS011;16450;50.288;10.966;2023-05-29T03:31:33;10.83;;;4.17;;
29500;SDS011;16450;50.288;10.966;2023-05-29T03:34:35;7.00;;;4.07;;
29500;SDS011;16450;50.288;10.966;2023-05-29T03:37:36;7.03;;;4.27;;
29500;SDS011;16450;50.288;10.966;2023-05-29T03:40:38;10.07;;;4.10;;
29500;SDS011;16450;50.288;10.966;2023-05-29T03:43:40;8.17;;;4.47;;
29500;SDS011;16450;50.288;10.966;2023-05-29T03:46:42;5.67;;;3.57;;
29500;SDS011;16450;50.288;10.966;2023-05-29T03:49:44;6.13;;;3.90;;
29500;SDS011;16450;50.288;10.966;2023-05-29T03:52:46;8.73;;;4.07;;
29500;SDS011;16450;50.288;10.966;2023-05-29T03:55:51;6.33;;;3.90;;
29500;SDS011;16450;50.288;10.966;2023-05-29T03:58:52;6.83;;;3.60;;
29500;SDS011;16450;50.288;10.966;2023-05-29T04:01:56;4.87;;;3.47;;
29500;SDS011;16450;50.288;10.966;2023-05-29T04:04:58;8.93;;;4.47;;
29500;SDS011;16450;50.288;10.966;2023-05-29T04:08:00;9.20;;;4.13;;
29500;SDS011;16450;50.288;10.966;2023-05-29T04:11:16;9.60;;;4.20;;
29500;SDS011;16450;50.288;10.966;2023-05-29T04:14:21;7.63;;;3.70;;
29500;SDS011;16450;50.288;10.966;2023-05-29T04:17:24;7.87;;;3.77;;
29500;SDS011;16450;50.288;10.966;2023-05-29T04:20:26;7.17;;;3.87;;
29500;SDS011;16450;50.288;10.966;2023-05-29T04:23:28;8.63;;;4.10;;
29500;SDS011;16450;50.288;10.966;2023-05-29T04:26:30;7.20;;;4.20;;
29500;SDS011;16450;50.288;10.966;2023-05-29T04:29:34;7.53;;;3.93;;
29500;SDS011;16450;50.288;10.966;2023-05-29T04:32:36;7.70;;;4.10;;
29500;SDS011;16450;50.288;10.966;2023-05-29T04:35:38;7.00;;;4.27;;
29500;SDS011;16450;50.288;10.966;2023-05-29T04:38:40;6.90;;;3.93;;
29500;SDS011;16450;50.288;10.966;2023-05-29T04:41:42;9.00;;;4.10;;
29500;SDS011;16450;50.288;10.966;2023-05-29T04:44:44;10.00;;;4.10;;
29500;SDS011;16450;50.288;10.966;2023-05-29T04:47:46;9.83;;;3.93;;
29500;SDS011;16450;50.288;10.966;2023-05-29T04:50:48;8.07;;;4.00;;
29500;SDS011;16450;50.288;10.966;2023-05-29T04:53:53;6.60;;;4.10;;
29500;SDS011;16450;50.288;10.966;2023-05-29T04:56:55;8.03;;;4.50;;
29500;SDS011;16450;50.288;10.966;2023-05-29T04:59:57;9.67;;;4.77;;
29500;SDS011;16450;50.288;10.966;2023-05-29T05:02:59;7.50;;;4.30;;
29500;SDS011;16450;50.288;10.966;2023-05-29T05:06:01;8.60;;;4.13;;
29500;SDS011;16450;50.288;10.966;2023-05-29T05:09:03;9.07;;;3.67;;
29500;SDS011;16450;50.288;10.966;2023-05-29T05:12:05;6.03;;;3.60;;
29500;SDS011;16450;50.288;10.966;2023-05-29T05:15:08;6.03;;;3.35;;
29500;SDS011;16450;50.288;10.966;2023-05-29T05:18:10;5.13;;;3.03;;
29500;SDS011;16450;50.288;10.966;2023-05-29T05:21:15;4.63;;;3.20;;
29500;SDS011;16450;50.288;10.966;2023-05-29T05:24:19;4.63;;;2.85;;
29500;SDS011;16450;50.288;10.966;2023-05-29T05:27:21;6.75;;;3.20;;
29500;SDS011;16450;50.288;10.966;2023-05-29T05:30:23;6.78;;;3.40;;
29500;SDS011;16450;50.288;10.966;2023-05-29T05:33:25;5.88;;;3.10;;
29500;SDS011;16450;50.288;10.966;2023-05-29T05:36:27;6.38;;;3.20;;
29500;SDS011;16450;50.288;10.966;2023-05-29T05:39:28;6.15;;;3.10;;
29500;SDS011;16450;50.288;10.966;2023-05-29T05:42:30;4.70;;;3.28;;
29500;SDS011;16450;50.288;10.966;2023-05-29T05:45:32;4.57;;;3.15;;
29500;SDS011;16450;50.288;10.966;2023-05-29T05:48:34;4.28;;;3.10;;
29500;SDS011;16450;50.288;10.966;2023-05-29T05:51:37;4.38;;;2.60;;
29500;SDS011;16450;50.288;10.966;2023-05-29T05:54:39;6.07;;;2.85;;
29500;SDS011;16450;50.288;10.966;2023-05-29T05:57:41;6.20;;;3.17;;
29500;SDS011;16450;50.288;10.966;2023-05-29T06:00:43;5.70;;;2.97;;
29500;SDS011;16450;50.288;10.966;2023-05-29T06:03:44;6.28;;;2.97;;
29500;SDS011;16450;50.288;10.966;2023-05-29T06:06:47;5.07;;;2.83;;
29500;SDS011;16450;50.288;10.966;2023-05-29T06:09:48;4.13;;;2.72;;
29500;SDS011;16450;50.288;10.966;2023-05-29T06:12:50;3.75;;;2.90;;
29500;SDS011;16450;50.288;10.966;2023-05-29T06:15:54;4.88;;;2.88;;
29500;SDS011;16450;50.288;10.966;2023-05-29T06:18:56;3.80;;;2.67;;
29500;SDS011;16450;50.288;10.966;2023-05-29T06:21:58;3.65;;;2.35;;
29500;SDS011;16450;50.288;10.966;2023-05-29T06:25:00;6.45;;;2.85;;
29500;SDS011;16450;50.288;10.966;2023-05-29T06:28:06;5.95;;;2.95;;
29500;SDS011;16450;50.288;10.966;2023-05-29T06:31:08;4.32;;;2.53;;
29500;SDS011;16450;50.288;10.966;2023-05-29T06:34:10;4.07;;;2.60;;
29500;SDS011;16450;50.288;10.966;2023-05-29T06:37:13;4.07;;;2.50;;
29500;SDS011;16450;50.288;10.966;2023-05-29T06:40:15;9.45;;;2.78;;
29500;SDS011;16450;50.288;10.966;2023-05-29T06:43:17;5.30;;;2.80;;
29500;SDS011;16450;50.288;10.966;2023-05-29T06:46:19;4.22;;;2.60;;
29500;SDS011;16450;50.288;10.966;2023-05-29T06:49:21;3.47;;;2.67;;
29500;SDS011;16450;50.288;10.966;2023-05-29T06:52:23;7.75;;;2.83;;
29500;SDS011;16450;50.288;10.966;2023-05-29T06:55:25;3.80;;;2.67;;
29500;SDS011;16450;50.288;10.966;2023-05-29T06:58:31;6.88;;;2.65;;
29500;SDS011;16450;50.288;10.966;2023-05-29T07:01:33;3.65;;;2.55;;
29500;SDS011;16450;50.288;10.966;2023-05-29T07:04:35;3.50;;;2.50;;
29500;SDS011;16450;50.288;10.966;2023-05-29T07:07:37;5.30;;;2.78;;
29500;SDS011;16450;50.288;10.966;2023-05-29T07:10:39;3.83;;;2.63;;
29500;SDS011;16450;50.288;10.966;2023-05-29T07:13:41;5.32;;;2.63;;
29500;SDS011;16450;50.288;10.966;2023-05-29T07:16:44;4.43;;;2.60;;
29500;SDS011;16450;50.288;10.966;2023-05-29T07:19:48;5.63;;;2.47;;
29500;SDS011;16450;50.288;10.966;2023-05-29T07:22:51;5.85;;;2.33;;
29500;SDS011;16450;50.288;10.966;2023-05-29T07:25:57;3.92;;;2.67;;
29500;SDS011;16450;50.288;10.966;2023-05-29T07:29:00;4.85;;;2.50;;
29500;SDS011;16450;50.288;10.966;2023-05-29T07:32:05;4.50;;;2.63;;
29500;SDS011;16450;50.288;10.966;2023-05-29T07:35:07;3.50;;;2.33;;
29500;SDS011;16450;50.288;10.966;2023-05-29T07:38:09;3.92;;;2.28;;
29500;SDS011;16450;50.288;10.966;2023-05-29T07:41:11;5.82;;;3.60;;
29500;SDS011;16450;50.288;10.966;2023-05-29T07:44:20;5.80;;;2.70;;
29500;SDS011;16450;50.288;10.966;2023-05-29T07:47:22;3.10;;;2.53;;
29500;SDS011;16450;50.288;10.966;2023-05-29T07:50:24;6.05;;;2.70;;
29500;SDS011;16450;50.288;10.966;2023-05-29T07:53:27;4.07;;;2.42;;
29500;SDS011;16450;50.288;10.966;2023-05-29T07:56:28;3.13;;;2.30;;
29500;SDS011;16450;50.288;10.966;2023-05-29T07:59:32;3.10;;;2.42;;
29500;SDS011;16450;50.288;10.966;2023-05-29T08:02:35;3.88;;;2.25;;
29500;SDS011;16450;50.288;10.966;2023-05-29T08:05:40;3.97;;;2.60;;
29500;SDS011;16450;50.288;10.966;2023-05-29T08:08:43;3.10;;;2.40;;
29500;SDS011;16450;50.288;10.966;2023-05-29T08:11:45;5.35;;;2.70;;
29500;SDS011;16450;50.288;10.966;2023-05-29T08:14:48;4.18;;;2.28;;
29500;SDS011;16450;50.288;10.966;2023-05-29T08:17:50;7.13;;;3.28;;
29500;SDS011;16450;50.288;10.966;2023-05-29T08:20:52;6.32;;;2.90;;
29500;SDS011;16450;50.288;10.966;2023-05-29T08:23:54;4.18;;;2.30;;
29500;SDS011;16450;50.288;10.966;2023-05-29T08:26:56;4.55;;;2.53;;
29500;SDS011;16450;50.288;10.966;2023-05-29T08:29:59;4.07;;;2.58;;
29500;SDS011;16450;50.288;10.966;2023-05-29T08:33:02;4.10;;;2.58;;
29500;SDS011;16450;50.288;10.966;2023-05-29T08:36:04;5.57;;;2.80;;
29500;SDS011;16450;50.288;10.966;2023-05-29T08:39:07;5.97;;;2.55;;
29500;SDS011;16450;50.288;10.966;2023-05-29T08:42:12;5.63;;;2.55;;
29500;SDS011;16450;50.288;10.966;2023-05-29T08:45:19;3.33;;;2.33;;
29500;SDS011;16450;50.288;10.966;2023-05-29T08:48:25;6.32;;;2.80;;
29500;SDS011;16450;50.288;10.966;2023-05-29T08:51:31;3.78;;;2.40;;
29500;SDS011;16450;50.288;10.966;2023-05-29T08:54:37;5.50;;;2.40;;
29500;SDS011;16450;50.288;10.966;2023-05-29T08:57:39;3.72;;;2.50;;
29500;SDS011;16450;50.288;10.966;2023-05-29T09:00:48;5.05;;;2.63;;
29500;SDS011;16450;50.288;10.966;2023-05-29T09:03:51;2.78;;;2.30;;
29500;SDS011;16450;50.288;10.966;2023-05-29T09:06:53;4.47;;;2.53;;
29500;SDS011;16450;50.288;10.966;2023-05-29T09:09:56;6.00;;;2.25;;
29500;SDS011;16450;50.288;10.966;2023-05-29T09:13:00;4.50;;;2.88;;
29500;SDS011;16450;50.288;10.966;2023-05-29T09:16:03;6.13;;;2.60;;
29500;SDS011;16450;50.288;10.966;2023-05-29T09:19:05;4.50;;;2.70;;
29500;SDS011;16450;50.288;10.966;2023-05-29T09:22:09;4.50;;;2.47;;
29500;SDS011;16450;50.288;10.966;2023-05-29T09:25:16;6.25;;;2.47;;
29500;SDS011;16450;50.288;10.966;2023-05-29T09:28:22;9.38;;;2.65;;
29500;SDS011;16450;50.288;10.966;2023-05-29T09:31:25;5.60;;;2.65;;
29500;SDS011;16450;50.288;10.966;2023-05-29T09:34:27;4.97;;;2.45;;
29500;SDS011;16450;50.288;10.966;2023-05-29T09:37:32;5.35;;;2.63;;
29500;SDS011;16450;50.288;10.966;2023-05-29T09:40:37;4.47;;;2.80;;
29500;SDS011;16450;50.288;10.966;2023-05-29T09:43:39;4.57;;;2.50;;
29500;SDS011;16450;50.288;10.966;2023-05-29T09:46:42;5.88;;;2.90;;
29500;SDS011;16450;50.288;10.966;2023-05-29T09:49:44;5.10;;;2.55;;
29500;SDS011;16450;50.288;10.966;2023-05-29T09:52:47;3.55;;;2.20;;
29500;SDS011;16450;50.288;10.966;2023-05-29T09:55:54;5.63;;;2.80;;
29500;SDS011;16450;50.288;10.966;2023-05-29T09:58:56;4.72;;;2.72;;
29500;SDS011;16450;50.288;10.966;2023-05-29T10:02:00;4.20;;;2.50;;
29500;SDS011;16450;50.288;10.966;2023-05-29T10:05:08;4.05;;;2.35;;
29500;SDS011;16450;50.288;10.966;2023-05-29T10:08:13;4.43;;;2.47;;
29500;SDS011;16450;50.288;10.966;2023-05-29T10:11:17;4.85;;;2.50;;
29500;SDS011;16450;50.288;10.966;2023-05-29T10:14:26;4.45;;;2.60;;
29500;SDS011;16450;50.288;10.966;2023-05-29T10:17:32;5.68;;;2.42;;
29500;SDS011;16450;50.288;10.966;2023-05-29T10:20:36;4.95;;;2.70;;
29500;SDS011;16450;50.288;10.966;2023-05-29T10:23:40;6.03;;;2.75;;
29500;SDS011;16450;50.288;10.966;2023-05-29T10:26:48;4.20;;;2.60;;
29500;SDS011;16450;50.288;10.966;2023-05-29T10:30:01;4.38;;;2.55;;
29500;SDS011;16450;50.288;10.966;2023-05-29T10:36:31;3.90;;;2.55;;
29500;SDS011;16450;50.288;10.966;2023-05-29T10:39:41;7.38;;;2.33;;
29500;SDS011;16450;50.288;10.966;2023-05-29T10:42:47;3.35;;;2.38;;
29500;SDS011;16450;50.288;10.966;2023-05-29T10:45:51;3.88;;;2.38;;
29500;SDS011;16450;50.288;10.966;2023-05-29T10:48:53;5.30;;;2.60;;
29500;SDS011;16450;50.288;10.966;2023-05-29T10:51:58;5.25;;;2.70;;
29500;SDS011;16450;50.288;10.966;2023-05-29T10:55:02;5.70;;;2.28;;
29500;SDS011;16450;50.288;10.966;2023-05-29T10:58:09;7.10;;;2.38;;
29500;SDS011;16450;50.288;10.966;2023-05-29T11:01:14;3.92;;;2.60;;
29500;SDS011;16450;50.288;10.966;2023-05-29T11:07:34;7.88;;;2.70;;
29500;SDS011;16450;50.288;10.966;2023-05-29T11:13:54;4.38;;;2.40;;
29500;SDS011;16450;50.288;10.966;2023-05-29T11:16:59;4.03;;;2.47;;
29500;SDS011;16450;50.288;10.966;2023-05-29T11:20:02;4.57;;;2.30;;
29500;SDS011;16450;50.288;10.966;2023-05-29T11:23:07;4.07;;;2.63;;
29500;SDS011;16450;50.288;10.966;2023-05-29T11:26:09;5.97;;;2.65;;
29500;SDS011;16450;50.288;10.966;2023-05-29T11:29:16;3.42;;;2.58;;
29500;SDS011;16450;50.288;10.966;2023-05-29T11:32:22;4.68;;;2.60;;
29500;SDS011;16450;50.288;10.966;2023-05-29T11:35:29;5.45;;;2.78;;
29500;SDS011;16450;50.288;10.966;2023-05-29T11:38:32;4.97;;;2.63;;
29500;SDS011;16450;50.288;10.966;2023-05-29T11:41:34;4.15;;;2.45;;
29500;SDS011;16450;50.288;10.966;2023-05-29T11:44:36;4.63;;;2.80;;
29500;SDS011;16450;50.288;10.966;2023-05-29T11:47:51;4.90;;;2.95;;
29500;SDS011;16450;50.288;10.966;2023-05-29T11:51:02;4.10;;;2.50;;
29500;SDS011;16450;50.288;10.966;2023-05-29T11:54:07;4.55;;;2.60;;
29500;SDS011;16450;50.288;10.966;2023-05-29T11:57:09;5.00;;;2.70;;
29500;SDS011;16450;50.288;10.966;2023-05-29T12:00:12;3.85;;;2.70;;
29500;SDS011;16450;50.288;10.966;2023-05-29T12:03:18;3.80;;;2.50;;
29500;SDS011;16450;50.288;10.966;2023-05-29T12:06:30;4.35;;;2.60;;
29500;SDS011;16450;50.288;10.966;2023-05-29T12:09:33;3.17;;;2.47;;
29500;SDS011;16450;50.288;10.966;2023-05-29T12:12:35;5.10;;;2.70;;
29500;SDS011;16450;50.288;10.966;2023-05-29T12:15:38;4.00;;;2.30;;
29500;SDS011;16450;50.288;10.966;2023-05-29T12:18:40;4.05;;;2.50;;
29500;SDS011;16450;50.288;10.966;2023-05-29T12:21:42;3.60;;;2.50;;
29500;SDS011;16450;50.288;10.966;2023-05-29T12:24:48;5.53;;;2.70;;
29500;SDS011;16450;50.288;10.966;2023-05-29T12:27:49;4.60;;;2.50;;
29500;SDS011;16450;50.288;10.966;2023-05-29T12:30:57;4.57;;;2.60;;
29500;SDS011;16450;50.288;10.966;2023-05-29T12:34:22;5.63;;;2.55;;
29500;SDS011;16450;50.288;10.966;2023-05-29T12:37:23;3.70;;;2.65;;
29500;SDS011;16450;50.288;10.966;2023-05-29T12:40:25;4.40;;;2.92;;
29500;SDS011;16450;50.288;10.966;2023-05-29T12:43:28;4.82;;;2.80;;
29500;SDS011;16450;50.288;10.966;2023-05-29T12:46:40;5.30;;;2.50;;
29500;SDS011;16450;50.288;10.966;2023-05-29T12:49:46;5.82;;;2.75;;
29500;SDS011;16450;50.288;10.966;2023-05-29T12:55:56;3.95;;;2.47;;
29500;SDS011;16450;50.288;10.966;2023-05-29T12:58:58;6.32;;;2.63;;
29500;SDS011;16450;50.288;10.966;2023-05-29T13:02:00;5.47;;;2.60;;
29500;SDS011;16450;50.288;10.966;2023-05-29T13:05:02;4.88;;;2.67;;
29500;SDS011;16450;50.288;10.966;2023-05-29T13:08:04;4.63;;;2.35;;
29500;SDS011;16450;50.288;10.966;2023-05-29T13:11:08;4.90;;;2.78;;
29500;SDS011;16450;50.288;10.966;2023-05-29T13:14:10;8.13;;;3.03;;
29500;SDS011;16450;50.288;10.966;2023-05-29T13:17:12;4.35;;;2.67;;
29500;SDS011;16450;50.288;10.966;2023-05-29T13:20:14;5.57;;;2.78;;
29500;SDS011;16450;50.288;10.966;2023-05-29T13:23:16;7.50;;;2.78;;
29500;SDS011;16450;50.288;10.966;2023-05-29T13:26:18;4.57;;;2.55;;
29500;SDS011;16450;50.288;10.966;2023-05-29T13:29:20;6.10;;;2.60;;
29500;SDS011;16450;50.288;10.966;2023-05-29T13:32:22;5.15;;;2.75;;
29500;SDS011;16450;50.288;10.966;2023-05-29T13:35:24;4.95;;;2.80;;
29500;SDS011;16450;50.288;10.966;2023-05-29T13:38:27;4.18;;;2.78;;
29500;SDS011;16450;50.288;10.966;2023-05-29T13:41:30;4.35;;;2.72;;
29500;SDS011;16450;50.288;10.966;2023-05-29T13:44:32;6.78;;;3.30;;
29500;SDS011;16450;50.288;10.966;2023-05-29T13:47:34;5.63;;;2.90;;
29500;SDS011;16450;50.288;10.966;2023-05-29T13:50:37;4.00;;;2.67;;
29500;SDS011;16450;50.288;10.966;2023-05-29T13:53:38;3.95;;;2.78;;
29500;SDS011;16450;50.288;10.966;2023-05-29T13:56:40;6.22;;;3.17;;
29500;SDS011;16450;50.288;10.966;2023-05-29T13:59:42;6.25;;;3.10;;
29500;SDS011;16450;50.288;10.966;2023-05-29T14:02:45;5.78;;;2.67;;
29500;SDS011;16450;50.288;10.966;2023-05-29T14:05:47;5.90;;;3.25;;
29500;SDS011;16450;50.288;10.966;2023-05-29T14:08:49;5.88;;;2.90;;
29500;SDS011;16450;50.288;10.966;2023-05-29T14:11:51;4.50;;;2.78;;
29500;SDS011;16450;50.288;10.966;2023-05-29T14:14:53;4.47;;;2.72;;
29500;SDS011;16450;50.288;10.966;2023-05-29T14:17:55;5.35;;;3.13;;
29500;SDS011;16450;50.288;10.966;2023-05-29T14:20:56;4.32;;;2.85;;
29500;SDS011;16450;50.288;10.966;2023-05-29T14:23:58;3.47;;;2.80;;
29500;SDS011;16450;50.288;10.966;2023-05-29T14:27:00;4.57;;;2.80;;
29500;SDS011;16450;50.288;10.966;2023-05-29T14:30:03;4.18;;;2.88;;
29500;SDS011;16450;50.288;10.966;2023-05-29T14:33:06;4.82;;;2.80;;
29500;SDS011;16450;50.288;10.966;2023-05-29T14:36:08;5.25;;;2.53;;
29500;SDS011;16450;50.288;10.966;2023-05-29T14:39:10;4.57;;;2.90;;
29500;SDS011;16450;50.288;10.966;2023-05-29T14:42:13;6.05;;;3.05;;
29500;SDS011;16450;50.288;10.966;2023-05-29T14:45:17;4.32;;;3.00;;
29500;SDS011;16450;50.288;10.966;2023-05-29T14:48:19;4.28;;;2.90;;
29500;SDS011;16450;50.288;10.966;2023-05-29T14:51:21;6.25;;;2.90;;
29500;SDS011;16450;50.288;10.966;2023-05-29T14:54:24;5.97;;;2.80;;
29500;SDS011;16450;50.288;10.966;2023-05-29T14:57:27;6.35;;;3.08;;
29500;SDS011;16450;50.288;10.966;2023-05-29T15:00:29;6.30;;;3.03;;
29500;SDS011;16450;50.288;10.966;2023-05-29T15:03:31;4.88;;;2.75;;
29500;SDS011;16450;50.288;10.966;2023-05-29T15:06:33;6.63;;;3.28;;
29500;SDS011;16450;50.288;10.966;2023-05-29T15:09:35;7.22;;;3.10;;
29500;SDS011;16450;50.288;10.966;2023-05-29T15:12:38;4.68;;;2.95;;
29500;SDS011;16450;50.288;10.966;2023-05-29T15:15:40;5.70;;;3.00;;
29500;SDS011;16450;50.288;10.966;2023-05-29T15:18:49;4.65;;;2.97;;
29500;SDS011;16450;50.288;10.966;2023-05-29T15:21:54;5.60;;;3.45;;
29500;SDS011;16450;50.288;10.966;2023-05-29T15:24:56;5.22;;;2.95;;
29500;SDS011;16450;50.288;10.966;2023-05-29T15:27:58;4.28;;;3.00;;
29500;SDS011;16450;50.288;10.966;2023-05-29T15:31:00;4.30;;;2.90;;
29500;SDS011;16450;50.288;10.966;2023-05-29T15:34:03;5.85;;;3.08;;
29500;SDS011;16450;50.288;10.966;2023-05-29T15:37:05;5.18;;;3.00;;
29500;SDS011;16450;50.288;10.966;2023-05-29T15:40:07;4.32;;;3.25;;
29500;SDS011;16450;50.288;10.966;2023-05-29T15:43:13;7.07;;;2.80;;
29500;SDS011;16450;50.288;10.966;2023-05-29T15:46:14;4.20;;;2.70;;
29500;SDS011;16450;50.288;10.966;2023-05-29T15:49:18;5.15;;;2.97;;
29500;SDS011;16450;50.288;10.966;2023-05-29T15:52:19;6.20;;;3.58;;
29500;SDS011;16450;50.288;10.966;2023-05-29T15:55:22;4.78;;;2.88;;
29500;SDS011;16450;50.288;10.966;2023-05-29T15:58:24;7.57;;;3.67;;
29500;SDS011;16450;50.288;10.966;2023-05-29T16:01:26;5.38;;;3.05;;
29500;SDS011;16450;50.288;10.966;2023-05-29T16:04:28;4.50;;;2.85;;
29500;SDS011;16450;50.288;10.966;2023-05-29T16:07:30;4.38;;;2.90;;
29500;SDS011;16450;50.288;10.966;2023-05-29T16:10:32;3.88;;;2.78;;
29500;SDS011;16450;50.288;10.966;2023-05-29T16:13:34;4.90;;;2.85;;
29500;SDS011;16450;50.288;10.966;2023-05-29T16:16:36;4.13;;;2.95;;
29500;SDS011;16450;50.288;10.966;2023-05-29T16:19:38;5.53;;;2.88;;
29500;SDS011;16450;50.288;10.966;2023-05-29T16:22:41;4.97;;;3.03;;
29500;SDS011;16450;50.288;10.966;2023-05-29T16:25:44;5.03;;;2.85;;
29500;SDS011;16450;50.288;10.966;2023-05-29T16:28:46;6.60;;;3.53;;
29500;SDS011;16450;50.288;10.966;2023-05-29T16:31:48;5.65;;;2.70;;
29500;SDS011;16450;50.288;10.966;2023-05-29T16:34:51;5.95;;;2.95;;
29500;SDS011;16450;50.288;10.966;2023-05-29T16:37:55;5.75;;;3.10;;
29500;SDS011;16450;50.288;10.966;2023-05-29T16:40:57;5.25;;;3.05;;
29500;SDS011;16450;50.288;10.966;2023-05-29T16:43:59;7.20;;;3.28;;
29500;SDS011;16450;50.288;10.966;2023-05-29T16:47:01;5.75;;;3.55;;
29500;SDS011;16450;50.288;10.966;2023-05-29T16:50:03;4.13;;;2.90;;
29500;SDS011;16450;50.288;10.966;2023-05-29T16:53:05;7.13;;;3.50;;
29500;SDS011;16450;50.288;10.966;2023-05-29T16:56:07;5.05;;;3.40;;
29500;SDS011;16450;50.288;10.966;2023-05-29T16:59:09;4.75;;;3.15;;
29500;SDS011;16450;50.288;10.966;2023-05-29T17:02:12;4.15;;;3.15;;
29500;SDS011;16450;50.288;10.966;2023-05-29T17:05:14;6.93;;;3.38;;
29500;SDS011;16450;50.288;10.966;2023-05-29T17:08:16;5.15;;;3.30;;
29500;SDS011;16450;50.288;10.966;2023-05-29T17:11:18;4.53;;;3.15;;
29500;SDS011;16450;50.288;10.966;2023-05-29T17:14:22;5.32;;;3.17;;
29500;SDS011;16450;50.288;10.966;2023-05-29T17:17:25;5.00;;;3.13;;
29500;SDS011;16450;50.288;10.966;2023-05-29T17:20:27;6.80;;;3.15;;
29500;SDS011;16450;50.288;10.966;2023-05-29T17:23:31;7.13;;;3.13;;
29500;SDS011;16450;50.288;10.966;2023-05-29T17:26:33;7.53;;;3.58;;
29500;SDS011;16450;50.288;10.966;2023-05-29T17:29:34;6.68;;;3.25;;
29500;SDS011;16450;50.288;10.966;2023-05-29T17:32:36;7.45;;;3.33;;
29500;SDS011;16450;50.288;10.966;2023-05-29T17:35:38;6.55;;;2.90;;
29500;SDS011;16450;50.288;10.966;2023-05-29T17:38:40;5.43;;;3.50;;
29500;SDS011;16450;50.288;10.966;2023-05-29T17:41:42;3.85;;;2.67;;
29500;SDS011;16450;50.288;10.966;2023-05-29T17:44:44;5.90;;;3.08;;
29500;SDS011;16450;50.288;10.966;2023-05-29T17:47:45;7.50;;;3.50;;
29500;SDS011;16450;50.288;10.966;2023-05-29T17:50:47;4.97;;;2.58;;
29500;SDS011;16450;50.288;10.966;2023-05-29T17:53:50;6.07;;;3.05;;
29500;SDS011;16450;50.288;10.966;2023-05-29T17:56:51;6.60;;;2.90;;
29500;SDS011;16450;50.288;10.966;2023-05-29T17:59:54;5.45;;;2.85;;
29500;SDS011;16450;50.288;10.966;2023-05-29T18:02:56;5.47;;;3.38;;
29500;SDS011;16450;50.288;10.966;2023-05-29T18:05:58;4.60;;;2.55;;
29500;SDS011;16450;50.288;10.966;2023-05-29T18:09:00;4.25;;;2.70;;
29500;SDS011;16450;50.288;10.966;2023-05-29T18:12:02;5.30;;;3.60;;
29500;SDS011;16450;50.288;10.966;2023-05-29T18:15:06;6.03;;;3.10;;
29500;SDS011;16450;50.288;10.966;2023-05-29T18:18:08;8.18;;;3.25;;
29500;SDS011;16450;50.288;10.966;2023-05-29T18:21:10;4.68;;;2.60;;
29500;SDS011;16450;50.288;10.966;2023-05-29T18:24:13;6.43;;;3.03;;